KDCA/DCA METAR and TAF weather

Enter ICAO airport designator
Station Type Date Time Source
KDCA METAR 2021/01/20 21:52 UTC NOAA

KDCA 202152Z 33014KT 10SM FEW065 SCT250 04/M08 A3012 RMK AO2 SLP199 T00441083


Station Type Date Time Source
KDCA Decoded METAR 2021/01/20 21:52 UTC NOAA

WASHINGTON NATIONAL AIRPORT , VA, United States (KDCA) 38-51N 077-02W 18M
Jan 20, 2021 - 04:52 PM EST / 2021.01.20 2152 UTC
Wind: from the NNW (330 degrees) at 16 MPH (14 KT):0
Visibility: 10 mile(s):0
Sky conditions: partly cloudy
Temperature: 39.9 F (4.4 C)
Dew Point: 17.1 F (-8.3 C)
Relative Humidity: 39%
Pressure (altimeter): 30.12 in. Hg (1019 hPa)
ob: KDCA 202152Z 33014KT 10SM FEW065 SCT250 04/M08 A3012 RMK AO2 SLP199 T00441083
cycle: 22

Station Type Date Time Source
KDCA TAF 2021/01/20 21:51 UTC NOAA

TAF
AMD KDCA 202048Z 2021/2124 31012G23KT P6SM FEW060 FEW150
FM210000 30008KT P6SM SKC
FM210600 26005KT P6SM SKC
FM211500 23011G18KT P6SM FEW150
FM212300 26006KT P6SM FEW200

Example: see airport list